sensor_id;sensor_type;location;lat;lon;timestamp;P1;durP1;ratioP1;P2;durP2;ratioP2
15860;SDS011;8030;51.322;12.370;2022-07-01T00:02:06;10.88;;;9.77;;
15860;SDS011;8030;51.322;12.370;2022-07-01T00:04:34;10.10;;;9.20;;
15860;SDS011;8030;51.322;12.370;2022-07-01T00:07:20;10.02;;;9.13;;
15860;SDS011;8030;51.322;12.370;2022-07-01T00:09:48;10.15;;;9.23;;
15860;SDS011;8030;51.322;12.370;2022-07-01T00:12:16;10.60;;;9.13;;
15860;SDS011;8030;51.322;12.370;2022-07-01T00:14:45;10.68;;;9.75;;
15860;SDS011;8030;51.322;12.370;2022-07-01T00:17:13;10.60;;;9.50;;
15860;SDS011;8030;51.322;12.370;2022-07-01T00:19:41;10.10;;;9.07;;
15860;SDS011;8030;51.322;12.370;2022-07-01T00:22:09;12.50;;;9.80;;
15860;SDS011;8030;51.322;12.370;2022-07-01T00:24:37;9.07;;;8.20;;
15860;SDS011;8030;51.322;12.370;2022-07-01T00:27:04;9.77;;;8.85;;
15860;SDS011;8030;51.322;12.370;2022-07-01T00:29:32;10.45;;;9.40;;
15860;SDS011;8030;51.322;12.370;2022-07-01T00:32:02;10.80;;;9.63;;
15860;SDS011;8030;51.322;12.370;2022-07-01T00:34:30;10.30;;;9.23;;
15860;SDS011;8030;51.322;12.370;2022-07-01T00:36:58;10.48;;;9.50;;
15860;SDS011;8030;51.322;12.370;2022-07-01T00:39:26;9.88;;;8.88;;
15860;SDS011;8030;51.322;12.370;2022-07-01T00:41:57;9.75;;;8.80;;
15860;SDS011;8030;51.322;12.370;2022-07-01T00:44:27;9.98;;;8.85;;
15860;SDS011;8030;51.322;12.370;2022-07-01T00:46:55;10.07;;;9.25;;
15860;SDS011;8030;51.322;12.370;2022-07-01T00:49:25;12.30;;;9.30;;
15860;SDS011;8030;51.322;12.370;2022-07-01T00:51:53;9.80;;;8.63;;
15860;SDS011;8030;51.322;12.370;2022-07-01T00:54:21;9.73;;;8.63;;
15860;SDS011;8030;51.322;12.370;2022-07-01T00:56:49;11.63;;;8.88;;
15860;SDS011;8030;51.322;12.370;2022-07-01T00:59:17;11.23;;;8.75;;
15860;SDS011;8030;51.322;12.370;2022-07-01T01:01:45;13.35;;;9.05;;
15860;SDS011;8030;51.322;12.370;2022-07-01T01:04:13;9.23;;;8.38;;
15860;SDS011;8030;51.322;12.370;2022-07-01T01:06:42;8.77;;;7.88;;
15860;SDS011;8030;51.322;12.370;2022-07-01T01:09:10;10.13;;;8.57;;
15860;SDS011;8030;51.322;12.370;2022-07-01T01:11:38;8.80;;;7.97;;
15860;SDS011;8030;51.322;12.370;2022-07-01T01:14:06;8.98;;;8.13;;
15860;SDS011;8030;51.322;12.370;2022-07-01T01:16:34;9.43;;;8.52;;
15860;SDS011;8030;51.322;12.370;2022-07-01T01:19:03;8.73;;;8.02;;
15860;SDS011;8030;51.322;12.370;2022-07-01T01:21:33;9.15;;;8.30;;
15860;SDS011;8030;51.322;12.370;2022-07-01T01:24:01;12.13;;;8.40;;
15860;SDS011;8030;51.322;12.370;2022-07-01T01:26:29;11.23;;;8.27;;
15860;SDS011;8030;51.322;12.370;2022-07-01T01:28:57;8.40;;;7.70;;
15860;SDS011;8030;51.322;12.370;2022-07-01T01:31:29;8.77;;;7.85;;
15860;SDS011;8030;51.322;12.370;2022-07-01T01:33:59;10.07;;;8.07;;
15860;SDS011;8030;51.322;12.370;2022-07-01T01:36:27;8.63;;;7.82;;
15860;SDS011;8030;51.322;12.370;2022-07-01T01:38:56;8.75;;;7.95;;
15860;SDS011;8030;51.322;12.370;2022-07-01T01:41:27;8.50;;;7.70;;
15860;SDS011;8030;51.322;12.370;2022-07-01T01:43:55;9.00;;;8.20;;
15860;SDS011;8030;51.322;12.370;2022-07-01T01:46:23;8.38;;;7.70;;
15860;SDS011;8030;51.322;12.370;2022-07-01T01:48:51;8.75;;;7.93;;
15860;SDS011;8030;51.322;12.370;2022-07-01T01:51:19;8.82;;;8.10;;
15860;SDS011;8030;51.322;12.370;2022-07-01T01:53:48;9.45;;;8.55;;
15860;SDS011;8030;51.322;12.370;2022-07-01T01:56:17;8.50;;;7.82;;
15860;SDS011;8030;51.322;12.370;2022-07-01T01:58:45;9.60;;;7.47;;
15860;SDS011;8030;51.322;12.370;2022-07-01T02:01:13;8.35;;;7.55;;
15860;SDS011;8030;51.322;12.370;2022-07-01T02:03:41;8.30;;;7.40;;
15860;SDS011;8030;51.322;12.370;2022-07-01T02:06:10;8.60;;;7.90;;
15860;SDS011;8030;51.322;12.370;2022-07-01T02:08:38;7.93;;;7.13;;
15860;SDS011;8030;51.322;12.370;2022-07-01T02:11:07;8.82;;;8.05;;
15860;SDS011;8030;51.322;12.370;2022-07-01T02:13:36;10.23;;;7.72;;
15860;SDS011;8030;51.322;12.370;2022-07-01T02:16:05;11.57;;;7.88;;
15860;SDS011;8030;51.322;12.370;2022-07-01T02:18:33;8.48;;;7.55;;
15860;SDS011;8030;51.322;12.370;2022-07-01T02:21:01;9.57;;;8.57;;
15860;SDS011;8030;51.322;12.370;2022-07-01T02:23:35;8.75;;;7.85;;
15860;SDS011;8030;51.322;12.370;2022-07-01T02:26:03;7.70;;;7.00;;
15860;SDS011;8030;51.322;12.370;2022-07-01T02:28:31;9.25;;;8.32;;
15860;SDS011;8030;51.322;12.370;2022-07-01T02:31:00;8.65;;;7.85;;
15860;SDS011;8030;51.322;12.370;2022-07-01T02:33:29;10.57;;;8.20;;
15860;SDS011;8030;51.322;12.370;2022-07-01T02:35:57;8.38;;;7.70;;
15860;SDS011;8030;51.322;12.370;2022-07-01T02:38:25;9.30;;;8.43;;
15860;SDS011;8030;51.322;12.370;2022-07-01T02:40:53;7.95;;;7.22;;
15860;SDS011;8030;51.322;12.370;2022-07-01T02:43:21;9.05;;;8.25;;
15860;SDS011;8030;51.322;12.370;2022-07-01T02:45:48;8.55;;;7.65;;
15860;SDS011;8030;51.322;12.370;2022-07-01T02:48:18;8.50;;;7.80;;
15860;SDS011;8030;51.322;12.370;2022-07-01T02:50:45;10.50;;;7.93;;
15860;SDS011;8030;51.322;12.370;2022-07-01T02:53:15;8.57;;;7.88;;
15860;SDS011;8030;51.322;12.370;2022-07-01T02:55:43;9.50;;;8.15;;
15860;SDS011;8030;51.322;12.370;2022-07-01T02:58:11;9.68;;;7.82;;
15860;SDS011;8030;51.322;12.370;2022-07-01T03:00:38;9.05;;;8.30;;
15860;SDS011;8030;51.322;12.370;2022-07-01T03:03:06;8.25;;;7.50;;
15860;SDS011;8030;51.322;12.370;2022-07-01T03:05:36;10.57;;;8.05;;
15860;SDS011;8030;51.322;12.370;2022-07-01T03:08:04;14.38;;;8.23;;
15860;SDS011;8030;51.322;12.370;2022-07-01T03:10:32;8.20;;;7.50;;
15860;SDS011;8030;51.322;12.370;2022-07-01T03:12:59;13.30;;;7.72;;
15860;SDS011;8030;51.322;12.370;2022-07-01T03:15:28;8.02;;;6.88;;
15860;SDS011;8030;51.322;12.370;2022-07-01T03:17:56;10.18;;;6.95;;
15860;SDS011;8030;51.322;12.370;2022-07-01T03:20:24;10.27;;;6.65;;
15860;SDS011;8030;51.322;12.370;2022-07-01T03:22:53;7.03;;;6.40;;
15860;SDS011;8030;51.322;12.370;2022-07-01T03:25:21;8.95;;;6.75;;
15860;SDS011;8030;51.322;12.370;2022-07-01T03:27:49;6.95;;;6.15;;
15860;SDS011;8030;51.322;12.370;2022-07-01T03:30:17;10.80;;;6.03;;
15860;SDS011;8030;51.322;12.370;2022-07-01T03:32:45;6.53;;;5.88;;
15860;SDS011;8030;51.322;12.370;2022-07-01T03:35:13;12.68;;;6.15;;
15860;SDS011;8030;51.322;12.370;2022-07-01T03:37:59;10.35;;;6.65;;
15860;SDS011;8030;51.322;12.370;2022-07-01T03:40:27;7.50;;;6.75;;
15860;SDS011;8030;51.322;12.370;2022-07-01T03:42:55;16.42;;;6.80;;
15860;SDS011;8030;51.322;12.370;2022-07-01T03:45:23;8.65;;;7.57;;
15860;SDS011;8030;51.322;12.370;2022-07-01T03:47:51;8.50;;;6.72;;
15860;SDS011;8030;51.322;12.370;2022-07-01T03:50:20;8.10;;;7.20;;
15860;SDS011;8030;51.322;12.370;2022-07-01T03:52:48;9.60;;;8.60;;
15860;SDS011;8030;51.322;12.370;2022-07-01T03:55:37;10.57;;;8.63;;
15860;SDS011;8030;51.322;12.370;2022-07-01T03:58:04;9.88;;;8.88;;
15860;SDS011;8030;51.322;12.370;2022-07-01T04:00:33;9.38;;;8.15;;
15860;SDS011;8030;51.322;12.370;2022-07-01T04:03:02;11.68;;;8.63;;
15860;SDS011;8030;51.322;12.370;2022-07-01T04:05:33;11.57;;;9.30;;
15860;SDS011;8030;51.322;12.370;2022-07-01T04:08:01;12.15;;;9.43;;
15860;SDS011;8030;51.322;12.370;2022-07-01T04:10:30;10.57;;;9.63;;
15860;SDS011;8030;51.322;12.370;2022-07-01T04:13:01;15.80;;;9.20;;
15860;SDS011;8030;51.322;12.370;2022-07-01T04:15:49;10.35;;;9.15;;
15860;SDS011;8030;51.322;12.370;2022-07-01T04:18:17;10.75;;;9.73;;
15860;SDS011;8030;51.322;12.370;2022-07-01T04:20:45;16.42;;;9.40;;
15860;SDS011;8030;51.322;12.370;2022-07-01T04:23:34;12.95;;;9.73;;
15860;SDS011;8030;51.322;12.370;2022-07-01T04:26:00;12.13;;;8.90;;
15860;SDS011;8030;51.322;12.370;2022-07-01T04:28:50;10.43;;;9.55;;
15860;SDS011;8030;51.322;12.370;2022-07-01T04:31:18;10.32;;;9.32;;
15860;SDS011;8030;51.322;12.370;2022-07-01T04:33:46;10.27;;;9.38;;
15860;SDS011;8030;51.322;12.370;2022-07-01T04:36:14;10.23;;;9.32;;
15860;SDS011;8030;51.322;12.370;2022-07-01T04:38:42;11.20;;;10.00;;
15860;SDS011;8030;51.322;12.370;2022-07-01T04:41:10;11.48;;;10.45;;
15860;SDS011;8030;51.322;12.370;2022-07-01T04:43:56;10.35;;;9.50;;
15860;SDS011;8030;51.322;12.370;2022-07-01T04:46:25;12.25;;;11.25;;
15860;SDS011;8030;51.322;12.370;2022-07-01T04:48:52;15.55;;;10.75;;
15860;SDS011;8030;51.322;12.370;2022-07-01T04:51:20;12.80;;;11.15;;
15860;SDS011;8030;51.322;12.370;2022-07-01T04:53:48;15.98;;;11.13;;
15860;SDS011;8030;51.322;12.370;2022-07-01T04:56:16;14.20;;;12.85;;
15860;SDS011;8030;51.322;12.370;2022-07-01T04:58:44;12.80;;;11.80;;
15860;SDS011;8030;51.322;12.370;2022-07-01T05:01:13;12.48;;;11.50;;
15860;SDS011;8030;51.322;12.370;2022-07-01T05:03:41;12.52;;;11.52;;
15860;SDS011;8030;51.322;12.370;2022-07-01T05:06:09;13.85;;;12.50;;
15860;SDS011;8030;51.322;12.370;2022-07-01T05:08:37;12.82;;;11.65;;
15860;SDS011;8030;51.322;12.370;2022-07-01T05:11:05;14.85;;;13.40;;
15860;SDS011;8030;51.322;12.370;2022-07-01T05:13:34;14.57;;;13.20;;
15860;SDS011;8030;51.322;12.370;2022-07-01T05:16:02;17.48;;;15.60;;
15860;SDS011;8030;51.322;12.370;2022-07-01T05:18:31;22.30;;;16.83;;
15860;SDS011;8030;51.322;12.370;2022-07-01T05:21:16;18.13;;;16.42;;
15860;SDS011;8030;51.322;12.370;2022-07-01T05:24:02;19.30;;;17.38;;
15860;SDS011;8030;51.322;12.370;2022-07-01T05:26:30;19.35;;;17.50;;
15860;SDS011;8030;51.322;12.370;2022-07-01T05:28:58;19.00;;;17.20;;
15860;SDS011;8030;51.322;12.370;2022-07-01T05:31:26;18.80;;;17.15;;
15860;SDS011;8030;51.322;12.370;2022-07-01T05:33:55;19.73;;;17.70;;
15860;SDS011;8030;51.322;12.370;2022-07-01T05:36:30;18.13;;;16.50;;
15860;SDS011;8030;51.322;12.370;2022-07-01T05:38:57;18.52;;;16.90;;
15860;SDS011;8030;51.322;12.370;2022-07-01T05:41:25;20.33;;;17.70;;
15860;SDS011;8030;51.322;12.370;2022-07-01T05:43:53;18.90;;;17.17;;
15860;SDS011;8030;51.322;12.370;2022-07-01T05:46:21;19.33;;;17.65;;
15860;SDS011;8030;51.322;12.370;2022-07-01T05:48:49;19.70;;;17.90;;
15860;SDS011;8030;51.322;12.370;2022-07-01T05:51:18;20.13;;;18.33;;
15860;SDS011;8030;51.322;12.370;2022-07-01T05:53:46;19.73;;;18.02;;
15860;SDS011;8030;51.322;12.370;2022-07-01T05:56:14;21.10;;;19.25;;
15860;SDS011;8030;51.322;12.370;2022-07-01T05:58:42;20.52;;;18.45;;
15860;SDS011;8030;51.322;12.370;2022-07-01T06:01:10;21.65;;;18.58;;
15860;SDS011;8030;51.322;12.370;2022-07-01T06:03:38;19.13;;;17.33;;
15860;SDS011;8030;51.322;12.370;2022-07-01T06:06:06;19.45;;;17.63;;
15860;SDS011;8030;51.322;12.370;2022-07-01T06:08:35;18.95;;;17.13;;
15860;SDS011;8030;51.322;12.370;2022-07-01T06:11:03;17.30;;;15.82;;
15860;SDS011;8030;51.322;12.370;2022-07-01T06:13:31;18.88;;;16.90;;
15860;SDS011;8030;51.322;12.370;2022-07-01T06:15:59;20.85;;;16.67;;
15860;SDS011;8030;51.322;12.370;2022-07-01T06:18:27;18.98;;;17.25;;
15860;SDS011;8030;51.322;12.370;2022-07-01T06:20:54;20.42;;;16.77;;
15860;SDS011;8030;51.322;12.370;2022-07-01T06:23:22;18.75;;;16.95;;
15860;SDS011;8030;51.322;12.370;2022-07-01T06:25:51;18.10;;;16.50;;
15860;SDS011;8030;51.322;12.370;2022-07-01T06:28:19;19.77;;;17.73;;
15860;SDS011;8030;51.322;12.370;2022-07-01T06:30:47;18.13;;;16.55;;
15860;SDS011;8030;51.322;12.370;2022-07-01T06:33:15;18.33;;;16.73;;
15860;SDS011;8030;51.322;12.370;2022-07-01T06:35:43;16.98;;;15.30;;
15860;SDS011;8030;51.322;12.370;2022-07-01T06:38:11;16.38;;;14.93;;
15860;SDS011;8030;51.322;12.370;2022-07-01T06:40:39;15.77;;;14.27;;
15860;SDS011;8030;51.322;12.370;2022-07-01T06:43:08;13.75;;;12.55;;
15860;SDS011;8030;51.322;12.370;2022-07-01T06:45:35;14.40;;;12.57;;
15860;SDS011;8030;51.322;12.370;2022-07-01T06:48:04;12.57;;;11.38;;
15860;SDS011;8030;51.322;12.370;2022-07-01T06:50:32;14.02;;;10.75;;
15860;SDS011;8030;51.322;12.370;2022-07-01T06:53:00;10.80;;;9.90;;
15860;SDS011;8030;51.322;12.370;2022-07-01T06:55:27;10.40;;;9.60;;
15860;SDS011;8030;51.322;12.370;2022-07-01T06:57:55;11.80;;;10.60;;
15860;SDS011;8030;51.322;12.370;2022-07-01T07:00:24;11.73;;;10.68;;
15860;SDS011;8030;51.322;12.370;2022-07-01T07:02:52;12.43;;;10.23;;
15860;SDS011;8030;51.322;12.370;2022-07-01T07:05:20;9.88;;;8.95;;
15860;SDS011;8030;51.322;12.370;2022-07-01T07:07:48;10.65;;;9.55;;
15860;SDS011;8030;51.322;12.370;2022-07-01T07:10:16;9.80;;;8.90;;
15860;SDS011;8030;51.322;12.370;2022-07-01T07:12:43;10.07;;;9.07;;
15860;SDS011;8030;51.322;12.370;2022-07-01T07:15:11;12.43;;;9.57;;
15860;SDS011;8030;51.322;12.370;2022-07-01T07:17:41;9.75;;;8.85;;
15860;SDS011;8030;51.322;12.370;2022-07-01T07:20:09;8.05;;;7.45;;
15860;SDS011;8030;51.322;12.370;2022-07-01T07:22:38;7.60;;;7.10;;
15860;SDS011;8030;51.322;12.370;2022-07-01T07:25:06;8.57;;;7.22;;
15860;SDS011;8030;51.322;12.370;2022-07-01T07:27:34;7.57;;;6.97;;
15860;SDS011;8030;51.322;12.370;2022-07-01T07:30:02;8.18;;;7.57;;
15860;SDS011;8030;51.322;12.370;2022-07-01T07:32:31;11.82;;;7.35;;
15860;SDS011;8030;51.322;12.370;2022-07-01T07:35:02;7.18;;;6.65;;
15860;SDS011;8030;51.322;12.370;2022-07-01T07:37:30;8.23;;;7.30;;
15860;SDS011;8030;51.322;12.370;2022-07-01T07:39:59;10.07;;;6.60;;
15860;SDS011;8030;51.322;12.370;2022-07-01T07:42:27;6.47;;;5.90;;
15860;SDS011;8030;51.322;12.370;2022-07-01T07:44:55;7.03;;;5.90;;
15860;SDS011;8030;51.322;12.370;2022-07-01T07:47:23;5.60;;;5.20;;
15860;SDS011;8030;51.322;12.370;2022-07-01T07:49:51;9.52;;;5.63;;
15860;SDS011;8030;51.322;12.370;2022-07-01T07:52:21;6.10;;;5.63;;
15860;SDS011;8030;51.322;12.370;2022-07-01T07:54:49;6.30;;;5.80;;
15860;SDS011;8030;51.322;12.370;2022-07-01T07:57:17;6.88;;;6.20;;
15860;SDS011;8030;51.322;12.370;2022-07-01T07:59:46;7.57;;;6.72;;
15860;SDS011;8030;51.322;12.370;2022-07-01T08:02:15;7.28;;;6.78;;
15860;SDS011;8030;51.322;12.370;2022-07-01T08:04:49;8.48;;;7.53;;
15860;SDS011;8030;51.322;12.370;2022-07-01T08:07:17;9.50;;;7.65;;
15860;SDS011;8030;51.322;12.370;2022-07-01T08:09:46;8.35;;;7.55;;
15860;SDS011;8030;51.322;12.370;2022-07-01T08:12:15;9.73;;;8.90;;
15860;SDS011;8030;51.322;12.370;2022-07-01T08:14:43;10.82;;;9.73;;
15860;SDS011;8030;51.322;12.370;2022-07-01T08:17:12;11.00;;;10.07;;
15860;SDS011;8030;51.322;12.370;2022-07-01T08:19:40;10.32;;;9.25;;
15860;SDS011;8030;51.322;12.370;2022-07-01T08:22:08;13.07;;;10.65;;
15860;SDS011;8030;51.322;12.370;2022-07-01T08:24:36;11.50;;;10.50;;
15860;SDS011;8030;51.322;12.370;2022-07-01T08:27:06;11.02;;;10.23;;
15860;SDS011;8030;51.322;12.370;2022-07-01T08:29:34;12.20;;;10.15;;
15860;SDS011;8030;51.322;12.370;2022-07-01T08:32:02;12.07;;;10.77;;
15860;SDS011;8030;51.322;12.370;2022-07-01T08:34:30;11.83;;;10.70;;
15860;SDS011;8030;51.322;12.370;2022-07-01T08:36:59;12.18;;;11.15;;
15860;SDS011;8030;51.322;12.370;2022-07-01T08:39:27;14.20;;;12.13;;
15860;SDS011;8030;51.322;12.370;2022-07-01T08:41:55;13.68;;;12.00;;
15860;SDS011;8030;51.322;12.370;2022-07-01T08:44:24;12.63;;;11.33;;
15860;SDS011;8030;51.322;12.370;2022-07-01T08:46:52;13.68;;;12.32;;
15860;SDS011;8030;51.322;12.370;2022-07-01T08:49:21;13.75;;;12.35;;
15860;SDS011;8030;51.322;12.370;2022-07-01T08:51:49;15.37;;;13.00;;
15860;SDS011;8030;51.322;12.370;2022-07-01T08:54:17;14.77;;;13.33;;
15860;SDS011;8030;51.322;12.370;2022-07-01T08:56:45;14.52;;;13.20;;
15860;SDS011;8030;51.322;12.370;2022-07-01T08:59:13;15.43;;;13.87;;
15860;SDS011;8030;51.322;12.370;2022-07-01T09:01:56;14.15;;;12.80;;
15860;SDS011;8030;51.322;12.370;2022-07-01T09:04:24;14.55;;;13.15;;
15860;SDS011;8030;51.322;12.370;2022-07-01T09:06:57;16.30;;;14.75;;
15860;SDS011;8030;51.322;12.370;2022-07-01T09:09:29;15.93;;;14.40;;
15860;SDS011;8030;51.322;12.370;2022-07-01T09:12:02;15.73;;;14.23;;
15860;SDS011;8030;51.322;12.370;2022-07-01T09:14:31;18.57;;;13.93;;
15860;SDS011;8030;51.322;12.370;2022-07-01T09:17:02;15.68;;;14.15;;
15860;SDS011;8030;51.322;12.370;2022-07-01T09:19:32;15.40;;;13.90;;
15860;SDS011;8030;51.322;12.370;2022-07-01T09:22:02;15.60;;;14.17;;
15860;SDS011;8030;51.322;12.370;2022-07-01T09:24:32;17.87;;;15.07;;
15860;SDS011;8030;51.322;12.370;2022-07-01T09:27:02;16.27;;;14.67;;
15860;SDS011;8030;51.322;12.370;2022-07-01T09:29:36;16.77;;;15.13;;
15860;SDS011;8030;51.322;12.370;2022-07-01T09:32:07;19.02;;;15.13;;
15860;SDS011;8030;51.322;12.370;2022-07-01T09:34:39;18.70;;;15.03;;
15860;SDS011;8030;51.322;12.370;2022-07-01T09:37:10;18.57;;;16.00;;
15860;SDS011;8030;51.322;12.370;2022-07-01T09:39:42;16.87;;;15.10;;
15860;SDS011;8030;51.322;12.370;2022-07-01T09:42:10;16.67;;;15.07;;
15860;SDS011;8030;51.322;12.370;2022-07-01T09:44:50;17.37;;;15.50;;
15860;SDS011;8030;51.322;12.370;2022-07-01T09:47:27;16.53;;;13.37;;
15860;SDS011;8030;51.322;12.370;2022-07-01T09:49:56;15.17;;;13.67;;
15860;SDS011;8030;51.322;12.370;2022-07-01T09:52:24;14.53;;;12.97;;
15860;SDS011;8030;51.322;12.370;2022-07-01T09:54:52;13.17;;;11.77;;
15860;SDS011;8030;51.322;12.370;2022-07-01T09:57:20;12.63;;;11.37;;
15860;SDS011;8030;51.322;12.370;2022-07-01T09:59:49;10.90;;;9.90;;
15860;SDS011;8030;51.322;12.370;2022-07-01T10:02:17;9.83;;;8.90;;
15860;SDS011;8030;51.322;12.370;2022-07-01T10:04:48;10.83;;;9.73;;
15860;SDS011;8030;51.322;12.370;2022-07-01T10:07:21;12.70;;;9.33;;
15860;SDS011;8030;51.322;12.370;2022-07-01T10:09:56;10.27;;;8.07;;
15860;SDS011;8030;51.322;12.370;2022-07-01T10:12:36;10.10;;;8.27;;
15860;SDS011;8030;51.322;12.370;2022-07-01T10:15:07;9.30;;;8.27;;
15860;SDS011;8030;51.322;12.370;2022-07-01T10:17:40;6.67;;;6.27;;
15860;SDS011;8030;51.322;12.370;2022-07-01T10:20:11;9.07;;;8.20;;
15860;SDS011;8030;51.322;12.370;2022-07-01T10:22:48;15.07;;;7.57;;
15860;SDS011;8030;51.322;12.370;2022-07-01T10:25:29;6.70;;;6.00;;
15860;SDS011;8030;51.322;12.370;2022-07-01T10:28:13;7.50;;;6.87;;
15860;SDS011;8030;51.322;12.370;2022-07-01T10:30:50;6.67;;;6.10;;
15860;SDS011;8030;51.322;12.370;2022-07-01T10:33:28;6.20;;;5.70;;
15860;SDS011;8030;51.322;12.370;2022-07-01T10:36:08;4.97;;;4.60;;
15860;SDS011;8030;51.322;12.370;2022-07-01T10:41:37;4.97;;;4.67;;
15860;SDS011;8030;51.322;12.370;2022-07-01T10:44:06;4.67;;;4.27;;
15860;SDS011;8030;51.322;12.370;2022-07-01T10:46:42;4.07;;;3.87;;
15860;SDS011;8030;51.322;12.370;2022-07-01T10:49:11;4.20;;;4.00;;
15860;SDS011;8030;51.322;12.370;2022-07-01T10:51:46;4.40;;;4.10;;
15860;SDS011;8030;51.322;12.370;2022-07-01T10:57:19;4.23;;;3.83;;
15860;SDS011;8030;51.322;12.370;2022-07-01T10:59:50;4.17;;;3.83;;
15860;SDS011;8030;51.322;12.370;2022-07-01T11:02:19;3.55;;;3.35;;
15860;SDS011;8030;51.322;12.370;2022-07-01T11:04:49;5.83;;;3.50;;
15860;SDS011;8030;51.322;12.370;2022-07-01T11:07:19;3.60;;;3.40;;
15860;SDS011;8030;51.322;12.370;2022-07-01T11:09:47;3.80;;;3.57;;
15860;SDS011;8030;51.322;12.370;2022-07-01T11:12:15;3.77;;;3.37;;
15860;SDS011;8030;51.322;12.370;2022-07-01T11:14:43;3.83;;;3.57;;
15860;SDS011;8030;51.322;12.370;2022-07-01T11:17:13;3.27;;;2.97;;
15860;SDS011;8030;51.322;12.370;2022-07-01T11:19:42;3.03;;;2.80;;
15860;SDS011;8030;51.322;12.370;2022-07-01T11:22:18;3.17;;;2.97;;
15860;SDS011;8030;51.322;12.370;2022-07-01T11:24:46;3.40;;;3.20;;
15860;SDS011;8030;51.322;12.370;2022-07-01T11:27:18;2.90;;;2.80;;
15860;SDS011;8030;51.322;12.370;2022-07-01T11:29:50;3.37;;;3.07;;
15860;SDS011;8030;51.322;12.370;2022-07-01T11:32:25;2.70;;;2.60;;
15860;SDS011;8030;51.322;12.370;2022-07-01T11:34:55;3.15;;;2.95;;
15860;SDS011;8030;51.322;12.370;2022-07-01T11:37:25;3.73;;;3.43;;
15860;SDS011;8030;51.322;12.370;2022-07-01T11:40:12;3.00;;;2.90;;
15860;SDS011;8030;51.322;12.370;2022-07-01T11:42:41;3.47;;;3.17;;
15860;SDS011;8030;51.322;12.370;2022-07-01T11:45:20;4.37;;;3.43;;
15860;SDS011;8030;51.322;12.370;2022-07-01T11:47:49;3.57;;;3.37;;
15860;SDS011;8030;51.322;12.370;2022-07-01T11:50:17;3.40;;;3.20;;
15860;SDS011;8030;51.322;12.370;2022-07-01T11:52:47;4.00;;;2.80;;
15860;SDS011;8030;51.322;12.370;2022-07-01T11:55:18;2.87;;;2.67;;
15860;SDS011;8030;51.322;12.370;2022-07-01T11:58:03;3.30;;;3.00;;
15860;SDS011;8030;51.322;12.370;2022-07-01T12:00:32;3.10;;;2.83;;
15860;SDS011;8030;51.322;12.370;2022-07-01T12:03:01;2.67;;;2.57;;
15860;SDS011;8030;51.322;12.370;2022-07-01T12:05:29;3.50;;;2.70;;
15860;SDS011;8030;51.322;12.370;2022-07-01T12:08:04;2.90;;;2.80;;
15860;SDS011;8030;51.322;12.370;2022-07-01T12:10:32;3.97;;;2.87;;
15860;SDS011;8030;51.322;12.370;2022-07-01T12:15:49;3.03;;;2.93;;
15860;SDS011;8030;51.322;12.370;2022-07-01T12:18:18;3.73;;;3.53;;
15860;SDS011;8030;51.322;12.370;2022-07-01T12:20:49;4.27;;;3.97;;
15860;SDS011;8030;51.322;12.370;2022-07-01T12:23:19;4.37;;;4.07;;
15860;SDS011;8030;51.322;12.370;2022-07-01T12:25:48;4.20;;;3.90;;
15860;SDS011;8030;51.322;12.370;2022-07-01T12:28:26;5.23;;;4.73;;
15860;SDS011;8030;51.322;12.370;2022-07-01T12:30:59;5.03;;;4.70;;
15860;SDS011;8030;51.322;12.370;2022-07-01T12:33:28;4.77;;;4.33;;
15860;SDS011;8030;51.322;12.370;2022-07-01T12:35:56;5.23;;;4.93;;
15860;SDS011;8030;51.322;12.370;2022-07-01T12:38:25;5.97;;;5.57;;
15860;SDS011;8030;51.322;12.370;2022-07-01T12:40:53;5.57;;;5.17;;
15860;SDS011;8030;51.322;12.370;2022-07-01T12:43:22;4.40;;;4.10;;
15860;SDS011;8030;51.322;12.370;2022-07-01T12:45:56;4.50;;;4.10;;
15860;SDS011;8030;51.322;12.370;2022-07-01T12:48:24;5.33;;;4.00;;
15860;SDS011;8030;51.322;12.370;2022-07-01T12:50:53;4.43;;;4.23;;
15860;SDS011;8030;51.322;12.370;2022-07-01T12:53:23;5.00;;;4.70;;
15860;SDS011;8030;51.322;12.370;2022-07-01T12:55:53;4.70;;;4.50;;
15860;SDS011;8030;51.322;12.370;2022-07-01T12:58:23;4.60;;;4.20;;
15860;SDS011;8030;51.322;12.370;2022-07-01T13:00:53;3.50;;;3.30;;
15860;SDS011;8030;51.322;12.370;2022-07-01T13:03:22;2.83;;;2.73;;
15860;SDS011;8030;51.322;12.370;2022-07-01T13:05:52;2.58;;;2.38;;
15860;SDS011;8030;51.322;12.370;2022-07-01T13:08:21;1.43;;;1.43;;
15860;SDS011;8030;51.322;12.370;2022-07-01T13:10:49;1.90;;;1.80;;
15860;SDS011;8030;51.322;12.370;2022-07-01T13:13:18;1.63;;;1.63;;
15860;SDS011;8030;51.322;12.370;2022-07-01T13:15:46;1.27;;;1.27;;
15860;SDS011;8030;51.322;12.370;2022-07-01T13:18:15;1.17;;;1.17;;
15860;SDS011;8030;51.322;12.370;2022-07-01T13:20:43;1.23;;;1.23;;
15860;SDS011;8030;51.322;12.370;2022-07-01T13:23:12;1.67;;;1.17;;
15860;SDS011;8030;51.322;12.370;2022-07-01T13:25:40;2.30;;;1.47;;
15860;SDS011;8030;51.322;12.370;2022-07-01T13:28:08;1.50;;;1.50;;
15860;SDS011;8030;51.322;12.370;2022-07-01T13:30:38;2.13;;;1.47;;
15860;SDS011;8030;51.322;12.370;2022-07-01T13:33:06;1.50;;;1.40;;
15860;SDS011;8030;51.322;12.370;2022-07-01T13:35:34;1.60;;;1.60;;
15860;SDS011;8030;51.322;12.370;2022-07-01T13:38:02;3.87;;;1.67;;
15860;SDS011;8030;51.322;12.370;2022-07-01T13:40:30;2.53;;;2.00;;
15860;SDS011;8030;51.322;12.370;2022-07-01T13:42:58;3.53;;;1.90;;
15860;SDS011;8030;51.322;12.370;2022-07-01T13:45:26;2.30;;;2.20;;
15860;SDS011;8030;51.322;12.370;2022-07-01T13:47:55;2.70;;;2.50;;
15860;SDS011;8030;51.322;12.370;2022-07-01T13:50:23;2.33;;;2.23;;
15860;SDS011;8030;51.322;12.370;2022-07-01T13:52:51;3.07;;;2.90;;
15860;SDS011;8030;51.322;12.370;2022-07-01T13:55:19;3.43;;;3.23;;
15860;SDS011;8030;51.322;12.370;2022-07-01T13:57:47;3.17;;;2.97;;
15860;SDS011;8030;51.322;12.370;2022-07-01T14:00:15;3.57;;;3.37;;
15860;SDS011;8030;51.322;12.370;2022-07-01T14:02:43;4.20;;;3.90;;
15860;SDS011;8030;51.322;12.370;2022-07-01T14:05:13;4.07;;;3.50;;
15860;SDS011;8030;51.322;12.370;2022-07-01T14:07:41;4.20;;;3.90;;
15860;SDS011;8030;51.322;12.370;2022-07-01T14:10:09;4.80;;;4.05;;
15860;SDS011;8030;51.322;12.370;2022-07-01T14:12:37;4.90;;;4.47;;
15860;SDS011;8030;51.322;12.370;2022-07-01T14:15:06;4.20;;;3.97;;
15860;SDS011;8030;51.322;12.370;2022-07-01T14:17:35;4.40;;;4.00;;
15860;SDS011;8030;51.322;12.370;2022-07-01T14:20:03;4.93;;;4.63;;
15860;SDS011;8030;51.322;12.370;2022-07-01T14:22:33;4.73;;;4.43;;
15860;SDS011;8030;51.322;12.370;2022-07-01T14:25:01;5.40;;;4.90;;
15860;SDS011;8030;51.322;12.370;2022-07-01T14:27:29;4.13;;;3.83;;
15860;SDS011;8030;51.322;12.370;2022-07-01T14:29:57;5.07;;;4.70;;
15860;SDS011;8030;51.322;12.370;2022-07-01T14:32:25;7.00;;;5.30;;
15860;SDS011;8030;51.322;12.370;2022-07-01T14:34:54;5.47;;;5.07;;
15860;SDS011;8030;51.322;12.370;2022-07-01T14:37:22;4.97;;;4.57;;
15860;SDS011;8030;51.322;12.370;2022-07-01T14:39:51;5.97;;;5.07;;
15860;SDS011;8030;51.322;12.370;2022-07-01T14:42:23;9.73;;;5.33;;
15860;SDS011;8030;51.322;12.370;2022-07-01T14:44:51;5.43;;;5.03;;
15860;SDS011;8030;51.322;12.370;2022-07-01T14:47:19;5.83;;;5.43;;
15860;SDS011;8030;51.322;12.370;2022-07-01T14:49:48;5.37;;;4.87;;
15860;SDS011;8030;51.322;12.370;2022-07-01T14:52:17;7.40;;;4.80;;
15860;SDS011;8030;51.322;12.370;2022-07-01T14:54:45;5.30;;;4.77;;
15860;SDS011;8030;51.322;12.370;2022-07-01T14:57:14;6.03;;;5.53;;
15860;SDS011;8030;51.322;12.370;2022-07-01T14:59:42;5.67;;;5.30;;
15860;SDS011;8030;51.322;12.370;2022-07-01T15:02:10;6.60;;;5.83;;